createdAt,value
2019-03-29T03:00:21.990Z,789.8
2019-03-29T03:00:26.331Z,789.81
2019-03-29T03:00:30.661Z,789.81
2019-03-29T03:00:34.989Z,789.77
2019-03-29T03:00:39.287Z,789.75
2019-03-29T03:00:43.605Z,789.77
2019-03-29T03:00:49.623Z,789.83
2019-03-29T03:00:53.859Z,789.82
2019-03-29T03:00:58.215Z,789.77
2019-03-29T03:01:02.542Z,789.8
2019-03-29T03:01:06.850Z,789.78
2019-03-29T03:01:11.154Z,789.77
2019-03-29T03:01:15.477Z,789.81
2019-03-29T03:01:19.778Z,789.76
2019-03-29T03:01:24.096Z,789.81
2019-03-29T03:01:28.329Z,789.8
2019-03-29T03:01:32.567Z,789.78
2019-03-29T03:01:36.880Z,789.78
2019-03-29T03:01:41.248Z,789.78
2019-03-29T03:01:45.564Z,789.78
2019-03-29T03:01:49.773Z,789.82
2019-03-29T03:01:54.099Z,789.75
2019-03-29T03:01:58.452Z,789.74
2019-03-29T03:02:02.788Z,789.74
2019-03-29T03:02:07.125Z,789.74
2019-03-29T03:02:11.459Z,789.74
2019-03-29T03:02:15.811Z,789.76
2019-03-29T03:02:20.133Z,789.78
2019-03-29T03:02:29.153Z,789.76
2019-03-29T03:02:33.484Z,789.75
2019-03-29T03:02:37.882Z,789.74
2019-03-29T03:02:42.212Z,789.77
2019-03-29T03:02:46.580Z,789.72
2019-03-29T03:02:50.887Z,789.73
2019-03-29T03:02:55.332Z,789.74
2019-03-29T03:02:59.668Z,789.75
2019-03-29T03:03:04.013Z,789.77
2019-03-29T03:03:07.967Z,789.75
2019-03-29T03:03:12.095Z,789.74
2019-03-29T03:03:16.438Z,789.73
2019-03-29T03:03:20.800Z,789.74
2019-03-29T03:03:25.102Z,789.71
2019-03-29T03:03:29.426Z,789.73
2019-03-29T03:03:33.739Z,789.74
2019-03-29T03:03:38.060Z,789.72
2019-03-29T03:03:42.382Z,789.72
2019-03-29T03:03:46.697Z,789.74
2019-03-29T03:03:51.002Z,789.67
2019-03-29T03:03:55.312Z,789.69
2019-03-29T03:03:59.621Z,789.69
2019-03-29T03:04:03.855Z,789.68
2019-03-29T03:04:08.182Z,789.72
2019-03-29T03:04:12.548Z,789.69
2019-03-29T03:04:16.866Z,789.72
2019-03-29T03:04:21.177Z,789.71
2019-03-29T03:04:25.514Z,789.65
2019-03-29T03:04:29.833Z,789.63
2019-03-29T03:04:34.063Z,789.66
2019-03-29T03:04:38.370Z,789.7
2019-03-29T03:04:42.694Z,789.69
2019-03-29T03:04:47.031Z,789.63
2019-03-29T03:04:51.365Z,789.68
2019-03-29T03:04:55.692Z,789.68
2019-03-29T03:05:00.022Z,789.71
2019-03-29T03:05:04.291Z,789.68
2019-03-29T03:05:08.623Z,789.7
2019-03-29T03:05:13.014Z,789.69
2019-03-29T03:05:17.330Z,789.68
2019-03-29T03:05:21.542Z,789.66
2019-03-29T03:05:26.012Z,789.68
2019-03-29T03:05:30.341Z,789.68
2019-03-29T03:05:34.649Z,789.68
2019-03-29T03:05:38.948Z,789.67
2019-03-29T03:05:43.186Z,789.7
2019-03-29T03:05:47.534Z,789.64
2019-03-29T03:05:51.750Z,789.66
2019-03-29T03:05:56.044Z,789.68
2019-03-29T03:06:00.361Z,789.68
2019-03-29T03:06:04.676Z,789.63
2019-03-29T03:06:09.022Z,789.64
2019-03-29T03:06:13.235Z,789.63
2019-03-29T03:06:17.538Z,789.66
2019-03-29T03:06:21.861Z,789.65
2019-03-29T03:06:26.180Z,789.66
2019-03-29T03:06:30.618Z,789.63
2019-03-29T03:06:34.944Z,789.64
2019-03-29T03:06:39.266Z,789.64
2019-03-29T03:06:43.575Z,789.65
2019-03-29T03:06:47.892Z,789.6
2019-03-29T03:06:52.219Z,789.59
2019-03-29T03:06:56.532Z,789.57
2019-03-29T03:07:00.772Z,789.63
2019-03-29T03:07:04.996Z,789.65
2019-03-29T03:07:09.320Z,789.64
2019-03-29T03:07:13.658Z,789.63
2019-03-29T03:07:17.880Z,789.61
2019-03-29T03:07:22.186Z,789.62
2019-03-29T03:07:26.509Z,789.61
2019-03-29T03:07:30.823Z,789.62
2019-03-29T03:07:35.147Z,789.6
2019-03-29T03:07:39.404Z,789.61
2019-03-29T03:07:43.702Z,789.58
2019-03-29T03:07:48.013Z,789.61
2019-03-29T03:07:52.320Z,789.62
2019-03-29T03:07:56.705Z,789.56
2019-03-29T03:08:01.131Z,789.62
2019-03-29T03:08:05.465Z,789.59
2019-03-29T03:08:09.771Z,789.59
2019-03-29T03:08:14.080Z,789.56
2019-03-29T03:08:18.404Z,789.6
2019-03-29T03:08:22.641Z,789.56
2019-03-29T03:08:26.862Z,789.55
2019-03-29T03:08:35.857Z,789.55
2019-03-29T03:08:40.211Z,789.58
2019-03-29T03:08:44.461Z,789.58
2019-03-29T03:08:48.676Z,789.54
2019-03-29T03:08:53.023Z,789.54
2019-03-29T03:09:17.617Z,789.5
2019-03-29T03:09:21.930Z,789.53
2019-03-29T03:09:26.265Z,789.55
2019-03-29T03:09:30.482Z,789.48
2019-03-29T03:09:34.800Z,789.51
2019-03-29T03:09:39.101Z,789.47
2019-03-29T03:09:43.450Z,789.47
2019-03-29T03:09:47.823Z,789.51
2019-03-29T03:09:52.133Z,789.52
2019-03-29T03:09:56.444Z,789.47
2019-03-29T03:10:00.765Z,789.48
2019-03-29T03:10:05.114Z,789.48
2019-03-29T03:10:09.349Z,789.49
2019-03-29T03:10:13.783Z,789.46
2019-03-29T03:10:18.092Z,789.47
2019-03-29T03:10:22.430Z,789.42
2019-03-29T03:10:26.667Z,789.44
2019-03-29T03:10:30.883Z,789.43
2019-03-29T03:10:35.100Z,789.44
2019-03-29T03:10:39.253Z,789.46
2019-03-29T03:10:43.570Z,789.45
2019-03-29T03:10:47.989Z,789.46
2019-03-29T03:10:52.351Z,789.44
2019-03-29T03:10:56.579Z,789.44
2019-03-29T03:11:00.916Z,789.44
2019-03-29T03:11:05.249Z,789.48
2019-03-29T03:11:09.429Z,789.42
2019-03-29T03:11:13.745Z,789.45
2019-03-29T03:11:18.111Z,789.42
2019-03-29T03:11:22.440Z,789.42
2019-03-29T03:11:26.729Z,789.4
2019-03-29T03:11:31.051Z,789.38
2019-03-29T03:11:35.379Z,789.41
2019-03-29T03:11:39.692Z,789.4
2019-03-29T03:11:44.161Z,789.35
2019-03-29T03:11:48.482Z,789.45
2019-03-29T03:11:52.894Z,789.45
2019-03-29T03:11:57.216Z,789.4
2019-03-29T03:12:01.451Z,789.37
2019-03-29T03:12:05.932Z,789.41
2019-03-29T03:12:10.294Z,789.38
2019-03-29T03:12:14.524Z,789.38
2019-03-29T03:12:18.761Z,789.45
2019-03-29T03:12:23.118Z,789.36
2019-03-29T03:12:27.536Z,789.38
2019-03-29T03:12:31.856Z,789.42
2019-03-29T03:12:36.175Z,789.42
2019-03-29T03:12:40.489Z,789.37
2019-03-29T03:12:44.800Z,789.36
2019-03-29T03:12:49.134Z,789.34
2019-03-29T03:12:53.382Z,789.37
2019-03-29T03:12:57.591Z,789.38
2019-03-29T03:13:01.899Z,789.37
2019-03-29T03:13:06.305Z,789.43
2019-03-29T03:13:10.639Z,789.41
2019-03-29T03:13:14.998Z,789.4
2019-03-29T03:13:19.330Z,789.38
2019-03-29T03:13:23.642Z,789.33
2019-03-29T03:13:27.984Z,789.39
2019-03-29T03:13:32.310Z,789.36
2019-03-29T03:13:36.614Z,789.4
2019-03-29T03:13:40.910Z,789.4
2019-03-29T03:13:45.131Z,789.4
2019-03-29T03:13:49.442Z,789.41
2019-03-29T03:13:53.757Z,789.4
2019-03-29T03:13:58.051Z,789.39
2019-03-29T03:14:02.313Z,789.31
2019-03-29T03:14:06.573Z,789.31
2019-03-29T03:14:10.794Z,789.41
2019-03-29T03:14:15.150Z,789.38
2019-03-29T03:14:19.400Z,789.34
2019-03-29T03:14:23.729Z,789.36
2019-03-29T03:14:28.112Z,789.34
2019-03-29T03:14:32.413Z,789.33
2019-03-29T03:14:36.734Z,789.33
2019-03-29T03:14:41.057Z,789.4
2019-03-29T03:14:45.380Z,789.39
2019-03-29T03:14:49.682Z,789.35
2019-03-29T03:14:54.011Z,789.39
2019-03-29T03:14:58.364Z,789.35
2019-03-29T03:15:02.691Z,789.39
2019-03-29T03:15:07.018Z,789.35
2019-03-29T03:15:11.456Z,789.33
2019-03-29T03:15:15.800Z,789.35
2019-03-29T03:15:20.161Z,789.35
2019-03-29T03:15:24.513Z,789.35
2019-03-29T03:15:28.824Z,789.34
2019-03-29T03:15:33.137Z,789.31
2019-03-29T03:15:37.442Z,789.32
2019-03-29T03:15:41.749Z,789.33
2019-03-29T03:15:46.077Z,789.33
2019-03-29T03:15:50.398Z,789.28
2019-03-29T03:15:54.707Z,789.29
2019-03-29T03:15:58.940Z,789.31
2019-03-29T03:16:03.371Z,789.3
2019-03-29T03:16:07.692Z,789.34
2019-03-29T03:16:12.013Z,789.32
2019-03-29T03:16:16.367Z,789.29
2019-03-29T03:16:20.669Z,789.32
2019-03-29T03:16:25.024Z,789.33
2019-03-29T03:16:29.328Z,789.32
2019-03-29T03:16:33.644Z,789.28
2019-03-29T03:16:37.943Z,789.23
2019-03-29T03:16:42.314Z,789.27
2019-03-29T03:16:46.661Z,789.25
2019-03-29T03:16:51.042Z,789.25
2019-03-29T03:16:55.365Z,789.25
2019-03-29T03:16:59.673Z,789.26
2019-03-29T03:17:03.982Z,789.26
2019-03-29T03:17:08.335Z,789.28
2019-03-29T03:17:12.651Z,789.28
2019-03-29T03:17:16.959Z,789.26
2019-03-29T03:17:21.291Z,789.26
2019-03-29T03:17:25.605Z,789.28
2019-03-29T03:17:29.932Z,789.27
2019-03-29T03:17:34.249Z,789.25
2019-03-29T03:17:38.579Z,789.28
2019-03-29T03:17:42.934Z,789.18
2019-03-29T03:17:47.257Z,789.2
2019-03-29T03:17:51.604Z,789.22
2019-03-29T03:17:55.857Z,789.22
2019-03-29T03:18:00.191Z,789.27
2019-03-29T03:18:04.721Z,789.19
2019-03-29T03:18:09.069Z,789.25
2019-03-29T03:18:13.379Z,789.23
2019-03-29T03:18:17.725Z,789.25
2019-03-29T03:18:22.056Z,789.2
2019-03-29T03:18:26.453Z,789.23
2019-03-29T03:18:30.976Z,789.23
2019-03-29T03:18:35.204Z,789.24
2019-03-29T03:18:39.529Z,789.22
2019-03-29T03:18:43.988Z,789.2
2019-03-29T03:18:48.321Z,789.23
2019-03-29T03:18:52.525Z,789.25
2019-03-29T03:18:56.862Z,789.22
2019-03-29T03:19:01.191Z,789.22
2019-03-29T03:19:05.501Z,789.2
2019-03-29T03:19:09.713Z,789.23
2019-03-29T03:19:14.095Z,789.21
2019-03-29T03:19:18.409Z,789.23
2019-03-29T03:19:22.720Z,789.2
2019-03-29T03:19:27.080Z,789.24
2019-03-29T03:19:31.436Z,789.2
2019-03-29T03:19:35.794Z,789.22
2019-03-29T03:19:40.116Z,789.22
2019-03-29T03:19:44.420Z,789.21
2019-03-29T03:19:48.844Z,789.2
2019-03-29T03:19:53.154Z,789.2
2019-03-29T03:19:57.486Z,789.22
2019-03-29T03:20:01.974Z,789.25
2019-03-29T03:20:06.315Z,789.21
2019-03-29T03:20:16.062Z,789.21
2019-03-29T03:20:20.464Z,789.21
2019-03-29T03:20:24.769Z,789.21
2019-03-29T03:20:29.096Z,789.19
2019-03-29T03:20:33.401Z,789.19
2019-03-29T03:20:37.701Z,789.18
2019-03-29T03:20:42.030Z,789.17
2019-03-29T03:20:46.338Z,789.17
2019-03-29T03:20:50.713Z,789.19
2019-03-29T03:20:55.033Z,789.17
2019-03-29T03:20:59.378Z,789.19
2019-03-29T03:21:03.727Z,789.16
2019-03-29T03:21:08.097Z,789.13
2019-03-29T03:21:12.440Z,789.19
2019-03-29T03:21:16.785Z,789.15
2019-03-29T03:21:21.094Z,789.13
2019-03-29T03:21:25.354Z,789.12
2019-03-29T03:21:29.805Z,789.14
2019-03-29T03:21:34.146Z,789.14
2019-03-29T03:21:38.474Z,789.18
2019-03-29T03:21:42.817Z,789.13
2019-03-29T03:21:47.037Z,789.13
2019-03-29T03:21:51.372Z,789.13
2019-03-29T03:21:55.678Z,789.1
2019-03-29T03:22:00.004Z,789.13
2019-03-29T03:22:04.335Z,789.15
2019-03-29T03:22:08.641Z,789.09
2019-03-29T03:22:12.942Z,789.12
2019-03-29T03:22:17.269Z,789.13
2019-03-29T03:22:21.583Z,789.11
2019-03-29T03:22:25.890Z,789.1
2019-03-29T03:22:30.235Z,789.09
2019-03-29T03:22:34.583Z,789.1
2019-03-29T03:22:38.932Z,789.12
2019-03-29T03:22:43.243Z,789.06
2019-03-29T03:22:47.601Z,789.08
2019-03-29T03:22:51.822Z,789.1
2019-03-29T03:22:56.292Z,789.08
2019-03-29T03:23:00.628Z,789.1
2019-03-29T03:23:04.960Z,789.06
2019-03-29T03:23:09.160Z,789.1
2019-03-29T03:23:13.502Z,789.03
2019-03-29T03:23:17.841Z,789.05
2019-03-29T03:23:22.158Z,789.08
2019-03-29T03:23:26.487Z,789.09
2019-03-29T03:23:30.792Z,789.07
2019-03-29T03:23:35.089Z,789.08
2019-03-29T03:23:39.555Z,789.08
2019-03-29T03:23:43.879Z,789.05
2019-03-29T03:23:48.202Z,789.06
2019-03-29T03:23:52.611Z,789.02
2019-03-29T03:23:56.743Z,789.02
2019-03-29T03:24:01.289Z,789.08
2019-03-29T03:24:05.746Z,789.08
2019-03-29T03:24:10.088Z,789.09
2019-03-29T03:24:14.410Z,789.06
2019-03-29T03:24:18.731Z,789.06
2019-03-29T03:24:23.022Z,789.06
2019-03-29T03:24:27.328Z,789.05
2019-03-29T03:24:31.674Z,789.08
2019-03-29T03:24:36.003Z,789.06
2019-03-29T03:24:40.352Z,789.03
2019-03-29T03:24:44.645Z,789.05
2019-03-29T03:24:49.027Z,789.03
2019-03-29T03:24:53.569Z,789.05
2019-03-29T03:24:57.956Z,789.04
2019-03-29T03:25:02.666Z,788.98
2019-03-29T03:25:06.907Z,788.99
2019-03-29T03:25:11.320Z,789.03
2019-03-29T03:25:15.703Z,789.05
2019-03-29T03:25:20.029Z,789.07
2019-03-29T03:25:24.359Z,789.05
2019-03-29T03:25:28.589Z,789.03
2019-03-29T03:25:32.918Z,789.01
2019-03-29T03:25:37.251Z,789.03
2019-03-29T03:25:41.604Z,789.03
2019-03-29T03:25:45.858Z,789.05
2019-03-29T03:25:50.213Z,789.02
2019-03-29T03:25:54.518Z,789.03
2019-03-29T03:25:59.044Z,789.02
2019-03-29T03:26:03.551Z,789.04
2019-03-29T03:26:07.771Z,789
2019-03-29T03:26:12.080Z,788.98
2019-03-29T03:26:16.414Z,788.97
2019-03-29T03:26:20.760Z,788.96
2019-03-29T03:26:25.090Z,788.98
2019-03-29T03:26:29.392Z,789
2019-03-29T03:26:33.705Z,788.98
2019-03-29T03:26:38.010Z,789.02
2019-03-29T03:26:42.391Z,789.02
2019-03-29T03:26:46.705Z,788.98
2019-03-29T03:26:50.916Z,788.96
2019-03-29T03:26:55.138Z,788.96
2019-03-29T03:26:59.408Z,788.96
2019-03-29T03:27:03.720Z,788.97
2019-03-29T03:27:08.036Z,789
2019-03-29T03:27:12.243Z,788.99
2019-03-29T03:27:16.545Z,788.97
2019-03-29T03:27:20.905Z,788.98
2019-03-29T03:27:25.306Z,788.96
2019-03-29T03:27:29.613Z,788.97
2019-03-29T03:27:33.920Z,788.96
2019-03-29T03:27:38.263Z,788.96
2019-03-29T03:27:42.574Z,788.94
2019-03-29T03:27:46.887Z,788.95
2019-03-29T03:27:51.202Z,788.94
2019-03-29T03:27:55.419Z,788.97
2019-03-29T03:27:59.730Z,788.94
2019-03-29T03:28:04.307Z,788.92
2019-03-29T03:28:08.615Z,788.95
2019-03-29T03:28:12.923Z,788.94
2019-03-29T03:28:17.285Z,788.94
2019-03-29T03:28:21.616Z,788.91
2019-03-29T03:28:26.050Z,788.92
2019-03-29T03:28:30.420Z,788.89
2019-03-29T03:28:34.677Z,788.92
2019-03-29T03:28:39.156Z,788.89
2019-03-29T03:28:43.473Z,788.89
2019-03-29T03:28:47.884Z,788.92
2019-03-29T03:28:52.122Z,788.89
2019-03-29T03:28:56.338Z,788.89
2019-03-29T03:29:00.676Z,788.9
2019-03-29T03:29:05.234Z,788.91
2019-03-29T03:29:09.475Z,788.86
2019-03-29T03:29:13.889Z,788.91
2019-03-29T03:29:18.203Z,788.9
2019-03-29T03:29:22.537Z,788.86
2019-03-29T03:29:26.851Z,788.87
2019-03-29T03:29:31.152Z,788.84
2019-03-29T03:29:35.480Z,788.89
2019-03-29T03:29:39.806Z,788.88
2019-03-29T03:29:48.867Z,788.88
2019-03-29T03:29:53.198Z,788.88
2019-03-29T03:29:57.505Z,788.86
2019-03-29T03:30:02.249Z,788.89
2019-03-29T03:30:06.572Z,788.87
2019-03-29T03:30:10.839Z,788.87
2019-03-29T03:30:15.477Z,788.87
2019-03-29T03:30:19.864Z,788.84
2019-03-29T03:30:24.260Z,788.88
2019-03-29T03:30:28.772Z,788.83
2019-03-29T03:30:33.442Z,788.83
2019-03-29T03:30:37.850Z,788.86
2019-03-29T03:30:42.272Z,788.83
2019-03-29T03:30:46.669Z,788.84
2019-03-29T03:30:51.352Z,788.85
2019-03-29T03:30:55.617Z,788.86
2019-03-29T03:30:59.913Z,788.85
2019-03-29T03:31:04.585Z,788.88
2019-03-29T03:31:08.923Z,788.84
2019-03-29T03:31:13.329Z,788.86
2019-03-29T03:31:17.694Z,788.85
2019-03-29T03:31:22.318Z,788.84
2019-03-29T03:31:26.668Z,788.84
2019-03-29T03:31:31.069Z,788.8
2019-03-29T03:31:35.379Z,788.85
2019-03-29T03:31:39.747Z,788.86
2019-03-29T03:31:44.434Z,788.8
2019-03-29T03:31:48.939Z,788.79
2019-03-29T03:31:53.325Z,788.83
2019-03-29T03:31:57.792Z,788.79
2019-03-29T03:32:02.133Z,788.83
2019-03-29T03:32:06.450Z,788.84
2019-03-29T03:32:10.880Z,788.82
2019-03-29T03:32:15.234Z,788.82
2019-03-29T03:32:19.550Z,788.82
2019-03-29T03:32:23.954Z,788.79
2019-03-29T03:32:28.354Z,788.79
2019-03-29T03:32:32.828Z,788.8
2019-03-29T03:32:37.168Z,788.76
2019-03-29T03:32:41.652Z,788.77
2019-03-29T03:32:46.003Z,788.81
2019-03-29T03:32:50.477Z,788.83
2019-03-29T03:32:54.940Z,788.81
2019-03-29T03:32:59.367Z,788.81
2019-03-29T03:33:03.709Z,788.82
2019-03-29T03:33:08.032Z,788.83
2019-03-29T03:33:12.639Z,788.79
2019-03-29T03:33:17.051Z,788.78
2019-03-29T03:33:21.464Z,788.8
2019-03-29T03:33:25.826Z,788.77
2019-03-29T03:33:30.264Z,788.79
2019-03-29T03:33:34.621Z,788.77
2019-03-29T03:33:38.898Z,788.77
2019-03-29T03:33:43.265Z,788.75
2019-03-29T03:33:47.509Z,788.77
2019-03-29T03:33:51.950Z,788.79
2019-03-29T03:33:56.215Z,788.76
2019-03-29T03:34:00.621Z,788.77
2019-03-29T03:34:04.919Z,788.75
2019-03-29T03:34:09.344Z,788.72
2019-03-29T03:34:13.681Z,788.76
2019-03-29T03:34:18.041Z,788.75
2019-03-29T03:34:22.635Z,788.76
2019-03-29T03:34:26.946Z,788.75
2019-03-29T03:34:31.227Z,788.77
2019-03-29T03:34:35.597Z,788.76
2019-03-29T03:34:39.968Z,788.73
2019-03-29T03:34:44.327Z,788.71
2019-03-29T03:34:48.789Z,788.69
2019-03-29T03:34:53.256Z,788.7
2019-03-29T03:34:57.598Z,788.72
2019-03-29T03:35:02.439Z,788.69
2019-03-29T03:35:06.623Z,788.71
2019-03-29T03:35:11.007Z,788.68
2019-03-29T03:35:15.501Z,788.73
2019-03-29T03:35:19.881Z,788.73
2019-03-29T03:35:24.170Z,788.72
2019-03-29T03:35:28.553Z,788.72
2019-03-29T03:35:33.027Z,788.71
2019-03-29T03:35:37.335Z,788.7
2019-03-29T03:35:41.638Z,788.73
2019-03-29T03:35:45.981Z,788.73
2019-03-29T03:35:50.303Z,788.7
2019-03-29T03:35:54.607Z,788.71
2019-03-29T03:35:58.835Z,788.75
2019-03-29T03:36:03.162Z,788.76
2019-03-29T03:36:07.507Z,788.73
2019-03-29T03:36:11.841Z,788.73
2019-03-29T03:36:16.058Z,788.7
2019-03-29T03:36:20.456Z,788.72
2019-03-29T03:36:24.815Z,788.72
2019-03-29T03:36:29.140Z,788.71
2019-03-29T03:36:33.381Z,788.72
2019-03-29T03:36:37.614Z,788.73
2019-03-29T03:36:41.916Z,788.71
2019-03-29T03:36:46.131Z,788.7
2019-03-29T03:36:50.437Z,788.7
2019-03-29T03:36:54.650Z,788.63
2019-03-29T03:36:58.975Z,788.69
2019-03-29T03:37:03.293Z,788.65
2019-03-29T03:37:07.657Z,788.66
2019-03-29T03:37:11.865Z,788.65
2019-03-29T03:37:16.189Z,788.7
2019-03-29T03:37:20.404Z,788.7
2019-03-29T03:37:24.720Z,788.71
2019-03-29T03:37:29.042Z,788.67
2019-03-29T03:37:33.377Z,788.7
2019-03-29T03:37:37.710Z,788.69
2019-03-29T03:37:42.068Z,788.66
2019-03-29T03:37:46.278Z,788.67
2019-03-29T03:37:50.594Z,788.69
2019-03-29T03:37:55.015Z,788.68
2019-03-29T03:37:59.327Z,788.66
2019-03-29T03:38:03.633Z,788.68
2019-03-29T03:38:07.947Z,788.66
2019-03-29T03:38:12.297Z,788.67
2019-03-29T03:38:16.525Z,788.65
2019-03-29T03:38:20.888Z,788.63
2019-03-29T03:38:25.219Z,788.62
2019-03-29T03:38:29.547Z,788.67
2019-03-29T03:38:33.885Z,788.64
2019-03-29T03:38:38.230Z,788.65
2019-03-29T03:38:42.562Z,788.64
2019-03-29T03:38:46.886Z,788.65
2019-03-29T03:38:51.244Z,788.65
2019-03-29T03:38:55.484Z,788.63
2019-03-29T03:38:59.818Z,788.65
2019-03-29T03:39:04.215Z,788.68
2019-03-29T03:39:08.634Z,788.66
2019-03-29T03:39:32.668Z,788.63
2019-03-29T03:39:37.142Z,788.63
2019-03-29T03:39:41.480Z,788.64
2019-03-29T03:39:45.798Z,788.64
2019-03-29T03:39:50.123Z,788.66
2019-03-29T03:39:54.455Z,788.64
2019-03-29T03:39:58.770Z,788.6
2019-03-29T03:40:03.518Z,788.6
2019-03-29T03:40:07.823Z,788.62
2019-03-29T03:40:12.161Z,788.64
2019-03-29T03:40:16.436Z,788.64
2019-03-29T03:40:20.791Z,788.66
2019-03-29T03:40:25.113Z,788.63
2019-03-29T03:40:29.417Z,788.64
2019-03-29T03:40:33.741Z,788.65
2019-03-29T03:40:38.073Z,788.64
2019-03-29T03:40:42.385Z,788.65
2019-03-29T03:40:46.763Z,788.64
2019-03-29T03:40:51.092Z,788.63
2019-03-29T03:40:55.398Z,788.65
2019-03-29T03:40:59.713Z,788.59
2019-03-29T03:41:04.049Z,788.61
2019-03-29T03:41:08.349Z,788.64
2019-03-29T03:41:12.672Z,788.65
2019-03-29T03:41:16.996Z,788.67
2019-03-29T03:41:21.303Z,788.65
2019-03-29T03:41:25.613Z,788.66
2019-03-29T03:41:29.870Z,788.65
2019-03-29T03:41:34.078Z,788.65
2019-03-29T03:41:38.435Z,788.66
2019-03-29T03:41:42.745Z,788.65
2019-03-29T03:41:47.068Z,788.64
2019-03-29T03:41:51.203Z,788.65
2019-03-29T03:41:55.511Z,788.63
2019-03-29T03:41:59.841Z,788.65
2019-03-29T03:42:04.149Z,788.64
2019-03-29T03:42:08.466Z,788.64
2019-03-29T03:42:12.898Z,788.67
2019-03-29T03:42:17.212Z,788.62
2019-03-29T03:42:21.689Z,788.63
2019-03-29T03:42:26.056Z,788.65
2019-03-29T03:42:30.287Z,788.64
2019-03-29T03:42:34.596Z,788.64
2019-03-29T03:42:38.931Z,788.64
2019-03-29T03:42:43.258Z,788.6
2019-03-29T03:42:47.604Z,788.68
2019-03-29T03:42:51.923Z,788.62
2019-03-29T03:42:56.253Z,788.67
2019-03-29T03:43:00.482Z,788.63
2019-03-29T03:43:04.920Z,788.63
2019-03-29T03:43:09.238Z,788.63
2019-03-29T03:43:13.550Z,788.61
2019-03-29T03:43:17.970Z,788.61
2019-03-29T03:43:22.312Z,788.61
2019-03-29T03:43:26.522Z,788.63
2019-03-29T03:43:30.822Z,788.6
2019-03-29T03:43:35.143Z,788.61
2019-03-29T03:43:39.348Z,788.58
2019-03-29T03:43:43.658Z,788.65
2019-03-29T03:43:47.961Z,788.63
2019-03-29T03:43:52.291Z,788.62
2019-03-29T03:43:56.562Z,788.59
2019-03-29T03:44:00.876Z,788.6
2019-03-29T03:44:05.212Z,788.65
2019-03-29T03:44:09.548Z,788.65
2019-03-29T03:44:13.853Z,788.66
2019-03-29T03:44:18.162Z,788.63
2019-03-29T03:44:22.474Z,788.6
2019-03-29T03:44:26.858Z,788.63
2019-03-29T03:44:31.173Z,788.62
2019-03-29T03:44:35.576Z,788.62
2019-03-29T03:44:39.903Z,788.6
2019-03-29T03:44:44.214Z,788.56
2019-03-29T03:44:48.707Z,788.59
2019-03-29T03:44:53.028Z,788.56
2019-03-29T03:44:57.356Z,788.54
2019-03-29T03:45:02.209Z,788.55
2019-03-29T03:45:06.537Z,788.56
2019-03-29T03:45:10.773Z,788.63
2019-03-29T03:45:15.115Z,788.61
2019-03-29T03:45:19.447Z,788.6
2019-03-29T03:45:23.752Z,788.57
2019-03-29T03:45:28.064Z,788.58
2019-03-29T03:45:32.461Z,788.58
2019-03-29T03:45:36.779Z,788.58
2019-03-29T03:45:41.117Z,788.58
2019-03-29T03:45:45.363Z,788.55
2019-03-29T03:45:49.682Z,788.57
2019-03-29T03:45:53.895Z,788.55
2019-03-29T03:45:58.231Z,788.56
2019-03-29T03:46:02.558Z,788.56
2019-03-29T03:46:06.894Z,788.54
2019-03-29T03:46:11.119Z,788.53
2019-03-29T03:46:15.570Z,788.55
2019-03-29T03:46:19.879Z,788.52
2019-03-29T03:46:24.219Z,788.54
2019-03-29T03:46:28.444Z,788.51
2019-03-29T03:46:32.792Z,788.52
2019-03-29T03:46:37.231Z,788.54
2019-03-29T03:46:41.568Z,788.55
2019-03-29T03:46:45.867Z,788.54
2019-03-29T03:46:50.170Z,788.56
2019-03-29T03:46:54.504Z,788.55
2019-03-29T03:46:58.847Z,788.56
2019-03-29T03:47:03.391Z,788.54
2019-03-29T03:47:07.736Z,788.55
2019-03-29T03:47:12.051Z,788.54
2019-03-29T03:47:16.446Z,788.54
2019-03-29T03:47:20.885Z,788.53
2019-03-29T03:47:25.219Z,788.5
2019-03-29T03:47:29.614Z,788.53
2019-03-29T03:47:33.926Z,788.48
2019-03-29T03:47:38.343Z,788.54
2019-03-29T03:47:42.719Z,788.54
2019-03-29T03:47:47.034Z,788.53
2019-03-29T03:47:51.370Z,788.48
2019-03-29T03:47:55.576Z,788.52
2019-03-29T03:47:59.891Z,788.48
2019-03-29T03:48:04.260Z,788.49
2019-03-29T03:48:08.572Z,788.52
2019-03-29T03:48:12.919Z,788.53
2019-03-29T03:48:17.283Z,788.51
2019-03-29T03:48:21.522Z,788.5
2019-03-29T03:48:25.773Z,788.49
2019-03-29T03:48:30.052Z,788.51
2019-03-29T03:48:34.361Z,788.5
2019-03-29T03:48:38.684Z,788.46
2019-03-29T03:48:42.914Z,788.44
2019-03-29T03:48:47.250Z,788.48
2019-03-29T03:48:51.583Z,788.46
2019-03-29T03:48:55.891Z,788.49
2019-03-29T03:49:00.225Z,788.47
2019-03-29T03:49:04.653Z,788.46
2019-03-29T03:49:08.973Z,788.48
2019-03-29T03:49:13.189Z,788.49
2019-03-29T03:49:17.515Z,788.47
2019-03-29T03:49:21.816Z,788.5
2019-03-29T03:49:26.153Z,788.45
2019-03-29T03:49:30.566Z,788.48
2019-03-29T03:49:34.879Z,788.4
2019-03-29T03:49:39.101Z,788.46
2019-03-29T03:49:43.434Z,788.45
2019-03-29T03:49:47.743Z,788.46
2019-03-29T03:49:52.082Z,788.47
2019-03-29T03:50:00.616Z,788.45
2019-03-29T03:50:05.688Z,788.46
2019-03-29T03:50:10.007Z,788.44
2019-03-29T03:50:14.231Z,788.45
2019-03-29T03:50:18.570Z,788.45
2019-03-29T03:50:22.884Z,788.46
2019-03-29T03:50:27.141Z,788.43
2019-03-29T03:50:31.367Z,788.46
2019-03-29T03:50:35.688Z,788.42
2019-03-29T03:50:39.903Z,788.47
2019-03-29T03:50:44.306Z,788.41
2019-03-29T03:50:48.750Z,788.4
2019-03-29T03:50:53.075Z,788.39
2019-03-29T03:50:57.272Z,788.4
2019-03-29T03:51:01.512Z,788.41
2019-03-29T03:51:05.831Z,788.43
2019-03-29T03:51:10.168Z,788.44
2019-03-29T03:51:14.378Z,788.43
2019-03-29T03:51:18.696Z,788.46
2019-03-29T03:51:23.076Z,788.43
2019-03-29T03:51:27.394Z,788.41
2019-03-29T03:51:31.734Z,788.45
2019-03-29T03:51:36.034Z,788.39
2019-03-29T03:51:40.341Z,788.38
2019-03-29T03:51:44.687Z,788.44
2019-03-29T03:51:48.992Z,788.44
2019-03-29T03:51:53.329Z,788.45
2019-03-29T03:51:57.799Z,788.37
2019-03-29T03:52:02.165Z,788.45
2019-03-29T03:52:06.483Z,788.43
2019-03-29T03:52:10.784Z,788.42
2019-03-29T03:52:14.950Z,788.38
2019-03-29T03:52:19.274Z,788.4
2019-03-29T03:52:23.604Z,788.42
2019-03-29T03:52:27.976Z,788.43
2019-03-29T03:52:32.300Z,788.42
2019-03-29T03:52:36.606Z,788.43
2019-03-29T03:52:40.947Z,788.44
2019-03-29T03:52:45.265Z,788.41
2019-03-29T03:52:49.576Z,788.41
2019-03-29T03:52:53.944Z,788.42
2019-03-29T03:52:58.247Z,788.44
2019-03-29T03:53:02.554Z,788.43
2019-03-29T03:53:06.877Z,788.4
2019-03-29T03:53:11.141Z,788.4
2019-03-29T03:53:15.501Z,788.41
2019-03-29T03:53:19.823Z,788.41
2019-03-29T03:53:24.153Z,788.39
2019-03-29T03:53:28.513Z,788.39
2019-03-29T03:53:32.848Z,788.43
2019-03-29T03:53:37.144Z,788.41
2019-03-29T03:53:41.458Z,788.42
2019-03-29T03:53:45.784Z,788.42
2019-03-29T03:53:50.102Z,788.4
2019-03-29T03:53:54.414Z,788.39
2019-03-29T03:53:58.724Z,788.4
2019-03-29T03:54:03.141Z,788.37
2019-03-29T03:54:07.509Z,788.38
2019-03-29T03:54:11.856Z,788.38
2019-03-29T03:54:16.196Z,788.36
2019-03-29T03:54:20.531Z,788.36
2019-03-29T03:54:24.938Z,788.39
2019-03-29T03:54:29.249Z,788.38
2019-03-29T03:54:33.556Z,788.36
2019-03-29T03:54:37.884Z,788.36
2019-03-29T03:54:42.221Z,788.34
2019-03-29T03:54:46.526Z,788.36
2019-03-29T03:54:50.867Z,788.37
2019-03-29T03:54:55.187Z,788.37
2019-03-29T03:54:59.506Z,788.4
2019-03-29T03:55:04.134Z,788.36
2019-03-29T03:55:08.440Z,788.38
2019-03-29T03:55:12.665Z,788.35
2019-03-29T03:55:16.980Z,788.37
2019-03-29T03:55:21.292Z,788.37
2019-03-29T03:55:25.609Z,788.36
2019-03-29T03:55:29.813Z,788.33
2019-03-29T03:55:34.167Z,788.36
2019-03-29T03:55:38.571Z,788.33